createdAt,value
2019-06-11T00:01:32.201Z,18.97
2019-06-11T00:04:03.465Z,18.23
2019-06-11T00:06:32.260Z,19.07
2019-06-11T00:09:03.805Z,17.43
2019-06-11T00:11:32.959Z,18.00
2019-06-11T00:14:04.782Z,18.13
2019-06-11T00:16:33.587Z,16.50
2019-06-11T00:19:04.861Z,20.10
2019-06-11T00:21:34.224Z,14.93
2019-06-11T00:24:06.175Z,16.00
2019-06-11T00:26:34.903Z,17.80
2019-06-11T00:29:06.673Z,18.60
2019-06-11T00:31:35.588Z,16.37
2019-06-11T00:34:07.534Z,14.97
2019-06-11T00:36:36.231Z,16.37
2019-06-11T00:39:07.700Z,15.57
2019-06-11T00:41:58.041Z,18.43
2019-06-11T00:44:27.500Z,17.97
2019-06-11T00:46:58.373Z,17.70
2019-06-11T00:49:28.007Z,17.93
2019-06-11T00:51:57.461Z,17.87
2019-06-11T00:54:26.900Z,18.10
2019-06-11T00:56:57.318Z,17.90
2019-06-11T00:59:26.895Z,15.43
2019-06-11T01:01:57.622Z,11.80
2019-06-11T01:04:27.261Z,15.53
2019-06-11T01:06:56.707Z,18.43
2019-06-11T01:09:26.161Z,14.60
2019-06-11T01:11:55.619Z,19.80
2019-06-11T01:14:25.719Z,20.00
2019-06-11T01:16:55.249Z,17.77
2019-06-11T01:19:24.784Z,18.60
2019-06-11T01:21:54.235Z,15.07
2019-06-11T01:24:23.670Z,14.50
2019-06-11T01:26:53.150Z,13.50
2019-06-11T01:29:23.207Z,14.00
2019-06-11T01:31:53.377Z,17.90
2019-06-11T01:34:22.943Z,19.37
2019-06-11T01:36:52.589Z,17.10
2019-06-11T01:39:22.436Z,18.80
2019-06-11T01:41:53.122Z,18.67
2019-06-11T01:44:23.197Z,16.73
2019-06-11T01:46:52.944Z,19.70
2019-06-11T01:49:22.616Z,18.50
2019-06-11T01:51:52.745Z,13.90
2019-06-11T01:54:22.698Z,15.10
2019-06-11T01:56:52.643Z,14.77
2019-06-11T01:59:23.172Z,18.27
2019-06-11T02:01:52.800Z,19.00
2019-06-11T02:04:23.017Z,19.33
2019-06-11T02:06:53.195Z,19.53
2019-06-11T02:09:22.967Z,19.10
2019-06-11T02:11:52.572Z,19.00
2019-06-11T02:14:22.776Z,17.40
2019-06-11T02:16:53.253Z,17.80
2019-06-11T02:19:24.278Z,18.83
2019-06-11T02:21:54.125Z,19.03
2019-06-11T02:24:23.577Z,18.87
2019-06-11T02:26:53.440Z,21.37
2019-06-11T02:29:22.894Z,18.73
2019-06-11T02:31:53.899Z,18.80
2019-06-11T02:34:58.089Z,21.50
2019-06-11T02:36:54.739Z,20.30
2019-06-11T02:39:28.385Z,19.63
2019-06-11T02:41:55.413Z,18.97
2019-06-11T02:44:29.142Z,20.63
2019-06-11T02:46:56.039Z,20.00
2019-06-11T02:49:28.025Z,20.90
2019-06-11T02:51:57.548Z,19.63
2019-06-11T02:54:31.271Z,20.50
2019-06-11T02:57:01.121Z,21.10
2019-06-11T02:59:33.844Z,18.53
2019-06-11T03:02:01.533Z,19.83
2019-06-11T03:04:50.930Z,20.90
2019-06-11T03:07:04.501Z,21.90
2019-06-11T03:09:36.962Z,21.03
2019-06-11T03:12:06.795Z,17.93
2019-06-11T03:14:42.307Z,20.10
2019-06-11T03:17:16.349Z,19.07
2019-06-11T03:19:51.952Z,19.03
2019-06-11T03:22:27.226Z,17.30
2019-06-11T03:24:51.972Z,19.33
2019-06-11T03:27:27.203Z,20.90
2019-06-11T03:29:52.933Z,19.87
2019-06-11T03:33:11.583Z,19.33
2019-06-11T03:38:06.135Z,21.13
2019-06-11T03:40:00.663Z,20.00
2019-06-11T03:42:34.765Z,19.80
2019-06-11T03:45:01.686Z,21.30
2019-06-11T03:47:34.822Z,21.77
2019-06-11T03:50:02.212Z,20.67
2019-06-11T03:52:34.014Z,20.23
2019-06-11T03:55:04.000Z,22.13
2019-06-11T03:57:34.842Z,21.03
2019-06-11T04:00:15.501Z,19.43
2019-06-11T04:02:41.807Z,19.73
2019-06-11T04:05:11.351Z,19.07
2019-06-11T04:07:51.306Z,19.53
2019-06-11T04:10:15.666Z,22.40
2019-06-11T04:12:44.302Z,20.77
2019-06-11T04:15:14.560Z,20.30
2019-06-11T04:17:53.631Z,19.90
2019-06-11T04:20:17.126Z,18.60
2019-06-11T04:22:51.269Z,17.40
2019-06-11T04:25:21.363Z,19.83
2019-06-11T04:27:51.357Z,18.10
2019-06-11T04:30:37.123Z,18.37
2019-06-11T04:32:52.206Z,20.23
2019-06-11T04:35:25.226Z,17.90
2019-06-11T04:38:05.952Z,17.40
2019-06-11T04:40:29.215Z,18.10
2019-06-11T04:42:55.210Z,17.90
2019-06-11T04:45:43.971Z,17.30
2019-06-11T04:48:18.791Z,18.73
2019-06-11T04:50:47.187Z,17.10
2019-06-11T04:53:17.912Z,18.20
2019-06-11T04:55:51.149Z,15.60
2019-06-11T04:58:29.686Z,16.93
2019-06-11T05:05:57.121Z,15.80
2019-06-11T05:08:34.704Z,15.53
2019-06-11T05:11:01.457Z,17.43
2019-06-11T05:13:35.621Z,14.57
2019-06-11T05:16:01.699Z,15.00
2019-06-11T05:18:36.632Z,14.80
2019-06-11T05:21:02.645Z,14.40
2019-06-11T05:23:37.395Z,16.40
2019-06-11T05:26:09.518Z,15.50
2019-06-11T05:28:35.955Z,14.00
2019-06-11T05:31:05.788Z,14.13
2019-06-11T05:33:36.715Z,15.07
2019-06-11T05:36:06.436Z,14.17
2019-06-11T05:38:44.974Z,14.77
2019-06-11T05:41:07.055Z,13.37
2019-06-11T05:43:36.914Z,13.60
2019-06-11T05:46:06.365Z,13.27
2019-06-11T05:48:35.825Z,14.47
2019-06-11T05:51:05.281Z,13.47
2019-06-11T05:53:35.440Z,14.27
2019-06-11T05:56:05.060Z,14.30
2019-06-11T05:58:37.320Z,13.50
2019-06-11T06:01:28.402Z,12.00
2019-06-11T06:03:40.460Z,13.67
2019-06-11T06:06:11.356Z,13.33
2019-06-11T06:08:40.747Z,13.70
2019-06-11T06:11:10.886Z,12.73
2019-06-11T06:13:41.883Z,13.97
2019-06-11T06:16:11.548Z,13.63
2019-06-11T06:18:41.327Z,12.20
2019-06-11T06:21:10.899Z,12.67
2019-06-11T06:23:40.955Z,12.37
2019-06-11T06:26:12.692Z,12.97
2019-06-11T06:28:43.838Z,13.97
2019-06-11T06:31:12.938Z,13.13
2019-06-11T06:33:42.369Z,13.03
2019-06-11T06:36:11.824Z,11.70
2019-06-11T06:38:48.720Z,13.30
2019-06-11T06:41:12.629Z,13.00
2019-06-11T06:43:42.113Z,13.30
2019-06-11T06:46:11.567Z,11.40
2019-06-11T06:48:41.636Z,12.73
2019-06-11T06:51:11.827Z,12.50
2019-06-11T06:53:41.488Z,12.30
2019-06-11T06:56:10.969Z,11.90
2019-06-11T06:58:41.316Z,12.17
2019-06-11T07:01:11.475Z,12.90
2019-06-11T07:03:44.431Z,12.40
2019-06-11T07:06:12.614Z,11.67
2019-06-11T07:09:00.319Z,10.80
2019-06-11T07:11:13.211Z,11.40
2019-06-11T07:13:42.813Z,11.63
2019-06-11T07:16:12.229Z,10.97
2019-06-11T07:18:50.579Z,10.97
2019-06-11T07:21:12.867Z,10.43
2019-06-11T07:23:46.137Z,10.40
2019-06-11T07:26:13.477Z,9.90
2019-06-11T07:28:45.298Z,11.90
2019-06-11T07:31:14.140Z,11.03
2019-06-11T07:33:45.978Z,9.60
2019-06-11T07:36:14.728Z,11.50
2019-06-11T07:38:46.345Z,10.53
2019-06-11T07:41:15.402Z,10.00
2019-06-11T07:43:48.180Z,9.53
2019-06-11T07:46:32.689Z,9.60
2019-06-11T07:48:56.214Z,9.37
2019-06-11T07:51:21.760Z,9.57
2019-06-11T07:53:51.853Z,9.30
2019-06-11T07:56:21.196Z,8.60
2019-06-11T07:58:52.206Z,8.83
2019-06-11T08:01:21.982Z,9.30
2019-06-11T08:03:51.634Z,8.80
2019-06-11T08:06:22.536Z,9.43
2019-06-11T08:08:55.293Z,9.33
2019-06-11T08:11:23.653Z,9.03
2019-06-11T08:16:24.341Z,9.70
2019-06-11T08:19:02.207Z,8.83
2019-06-11T08:19:32.454Z,9.50
2019-06-11T08:21:47.829Z,8.70
2019-06-11T08:24:09.976Z,8.37
2019-06-11T08:29:01.406Z,10.00
2019-06-11T08:31:30.862Z,8.80
2019-06-11T08:34:02.837Z,9.10
2019-06-11T08:36:31.488Z,8.03
2019-06-11T08:39:01.329Z,8.30
2019-06-11T08:41:30.846Z,8.20
2019-06-11T08:44:01.049Z,8.60
2019-06-11T08:46:31.083Z,12.30
2019-06-11T08:49:00.976Z,8.90
2019-06-11T08:51:30.763Z,9.27
2019-06-11T08:54:00.428Z,8.97
2019-06-11T08:56:31.227Z,8.90
2019-06-11T08:59:01.154Z,9.30
2019-06-11T09:01:31.064Z,8.27
2019-06-11T09:04:01.065Z,7.90
2019-06-11T09:06:30.590Z,9.60
2019-06-11T09:09:00.870Z,8.20
2019-06-11T09:11:30.559Z,8.50
2019-06-11T09:14:10.215Z,8.17
2019-06-11T09:16:42.656Z,9.13
2019-06-11T09:19:11.700Z,8.57
2019-06-11T09:21:44.573Z,8.53
2019-06-11T09:24:12.570Z,7.40
2019-06-11T09:26:44.958Z,8.53
2019-06-11T09:29:13.220Z,8.40
2019-06-11T09:31:45.636Z,9.17
2019-06-11T09:34:13.845Z,8.60
2019-06-11T09:36:44.595Z,9.10
2019-06-11T09:39:14.469Z,7.37
2019-06-11T09:41:44.577Z,8.13
2019-06-11T09:44:15.257Z,8.90
2019-06-11T09:46:46.448Z,7.93
2019-06-11T09:49:15.828Z,7.03
2019-06-11T09:51:45.632Z,8.00
2019-06-11T09:54:15.138Z,8.83
2019-06-11T09:56:46.036Z,9.97
2019-06-11T09:59:15.818Z,8.07
2019-06-11T10:01:46.399Z,7.57
2019-06-11T10:04:16.402Z,8.03
2019-06-11T10:06:45.891Z,7.20
2019-06-11T10:09:15.327Z,7.70
2019-06-11T10:11:51.927Z,6.83
2019-06-11T10:14:15.976Z,8.50
2019-06-11T10:16:46.359Z,7.27
2019-06-11T10:19:15.861Z,7.23
2019-06-11T10:21:45.328Z,7.00
2019-06-11T10:24:14.799Z,7.77
2019-06-11T10:26:45.056Z,7.40
2019-06-11T10:29:14.549Z,7.10
2019-06-11T10:31:43.999Z,7.57
2019-06-11T10:34:14.729Z,7.40
2019-06-11T10:36:44.279Z,7.73
2019-06-11T10:39:14.473Z,8.30
2019-06-11T10:41:53.236Z,7.33
2019-06-11T10:44:15.121Z,8.07
2019-06-11T10:46:44.646Z,7.93
2019-06-11T10:49:14.094Z,7.20
2019-06-11T10:51:44.632Z,7.63
2019-06-11T10:54:14.071Z,7.20
2019-06-11T10:56:44.718Z,8.20
2019-06-11T10:59:14.925Z,7.10
2019-06-11T11:01:45.811Z,8.27
2019-06-11T11:04:15.701Z,7.30
2019-06-11T11:06:46.211Z,7.77
2019-06-11T11:09:15.690Z,7.23
2019-06-11T11:11:46.273Z,7.40
2019-06-11T11:14:16.275Z,7.37
2019-06-11T11:16:45.720Z,6.70
2019-06-11T11:19:15.168Z,7.60
2019-06-11T11:21:45.847Z,6.53
2019-06-11T11:24:15.455Z,7.00
2019-06-11T11:26:46.009Z,6.63
2019-06-11T11:29:15.652Z,7.80
2019-06-11T11:31:46.047Z,7.10
2019-06-11T11:34:15.601Z,6.13
2019-06-11T11:36:46.497Z,7.03
2019-06-11T11:39:16.003Z,6.67
2019-06-11T11:41:46.744Z,6.20
2019-06-11T11:44:16.247Z,6.43
2019-06-11T11:46:49.524Z,5.97
2019-06-11T11:49:23.432Z,6.20
2019-06-11T11:51:55.235Z,5.97
2019-06-11T11:54:30.784Z,6.47
2019-06-11T11:57:02.668Z,6.80
2019-06-11T11:59:34.947Z,5.93
2019-06-11T12:02:06.336Z,5.90
2019-06-11T12:04:36.134Z,5.90
2019-06-11T12:07:05.641Z,5.70
2019-06-11T12:09:35.086Z,5.90
2019-06-11T12:12:04.708Z,5.80
2019-06-11T12:14:34.161Z,6.27
2019-06-11T12:17:03.684Z,6.23
2019-06-11T12:19:33.137Z,6.20
2019-06-11T12:22:02.582Z,5.40
2019-06-11T12:24:33.455Z,6.40
2019-06-11T12:27:03.580Z,6.13
2019-06-11T12:29:33.099Z,6.00
2019-06-11T12:32:08.022Z,5.83
2019-06-11T12:34:33.856Z,6.03
2019-06-11T12:37:03.648Z,6.37
2019-06-11T12:39:33.196Z,6.47
2019-06-11T12:42:05.955Z,6.23
2019-06-11T12:44:33.797Z,6.30
2019-06-11T12:47:05.150Z,6.40
2019-06-11T12:49:34.412Z,6.20
2019-06-11T12:52:04.783Z,6.30
2019-06-11T12:54:34.463Z,6.63
2019-06-11T12:57:05.979Z,5.73
2019-06-11T12:59:35.864Z,5.93
2019-06-11T13:02:05.390Z,6.00
2019-06-11T13:04:34.959Z,5.60
2019-06-11T13:07:05.012Z,5.73
2019-06-11T13:09:34.459Z,5.53
2019-06-11T13:12:04.997Z,5.77
2019-06-11T13:14:36.227Z,5.70
2019-06-11T13:17:09.219Z,6.30
2019-06-11T13:19:37.405Z,7.07
2019-06-11T13:22:07.045Z,6.30
2019-06-11T13:24:36.515Z,6.23
2019-06-11T13:27:06.105Z,6.17
2019-06-11T13:29:35.579Z,5.43
2019-06-11T13:32:07.734Z,6.50
2019-06-11T13:34:36.361Z,5.67
2019-06-11T13:37:05.887Z,6.33
2019-06-11T13:39:35.364Z,5.53
2019-06-11T13:42:14.350Z,5.73
2019-06-11T13:44:39.663Z,5.90
2019-06-11T13:47:07.528Z,6.10
2019-06-11T13:49:37.012Z,6.70
2019-06-11T13:52:07.369Z,5.60
2019-06-11T13:54:37.700Z,5.70
2019-06-11T13:57:07.923Z,5.87
2019-06-11T13:59:37.451Z,5.70
2019-06-11T14:02:07.915Z,5.90
2019-06-11T14:04:37.361Z,6.20
2019-06-11T14:07:07.326Z,6.27
2019-06-11T14:09:36.934Z,6.07
2019-06-11T14:12:07.108Z,5.60
2019-06-11T14:14:36.685Z,6.70
2019-06-11T14:17:07.698Z,5.63
2019-06-11T14:19:37.348Z,5.97
2019-06-11T14:22:06.905Z,5.47
2019-06-11T14:24:36.358Z,5.20
2019-06-11T14:27:07.010Z,6.67
2019-06-11T14:29:36.540Z,5.40
2019-06-11T14:32:06.865Z,5.73
2019-06-11T14:34:36.519Z,5.17
2019-06-11T14:37:07.353Z,6.20
2019-06-11T14:39:36.969Z,5.30
2019-06-11T14:42:08.152Z,5.47
2019-06-11T14:44:43.023Z,5.90
2019-06-11T14:47:12.845Z,6.10
2019-06-11T14:49:43.035Z,5.80
2019-06-11T14:52:12.461Z,5.43
2019-06-11T14:54:41.928Z,5.90
2019-06-11T14:57:12.302Z,5.60
2019-06-11T14:59:45.483Z,5.80
2019-06-11T15:02:13.846Z,5.80
2019-06-11T15:04:43.265Z,6.00
2019-06-11T15:07:14.979Z,5.80
2019-06-11T15:09:44.023Z,5.90
2019-06-11T15:12:16.822Z,5.90
2019-06-11T15:14:54.331Z,5.70
2019-06-11T15:17:15.812Z,6.07
2019-06-11T15:20:00.466Z,5.60
2019-06-11T15:22:18.346Z,6.33
2019-06-11T15:24:47.585Z,5.73
2019-06-11T15:27:17.030Z,5.00
2019-06-11T15:30:16.613Z,5.80
2019-06-11T15:32:40.249Z,5.60
2019-06-11T15:35:15.411Z,5.63
2019-06-11T15:37:41.035Z,5.90
2019-06-11T15:40:15.860Z,4.80
2019-06-11T15:42:42.480Z,5.00
2019-06-11T15:45:32.724Z,5.60
2019-06-11T15:47:44.950Z,5.93
2019-06-11T15:50:15.109Z,5.27
2019-06-11T15:52:46.261Z,5.77
2019-06-11T15:55:15.938Z,5.40
2019-06-11T15:57:45.380Z,6.10
2019-06-11T16:00:15.386Z,5.90
2019-06-11T16:02:44.812Z,5.40
2019-06-11T16:05:14.439Z,5.70
2019-06-11T16:07:43.960Z,5.40
2019-06-11T16:10:15.220Z,5.80
2019-06-11T16:12:44.812Z,6.07
2019-06-11T16:15:26.150Z,5.50
2019-06-11T16:17:45.746Z,6.80
2019-06-11T16:20:18.837Z,6.10
2019-06-11T16:22:50.698Z,5.90
2019-06-11T16:25:23.142Z,7.00
2019-06-11T16:27:52.578Z,5.93
2019-06-11T16:30:22.473Z,5.27
2019-06-11T16:32:51.948Z,5.40
2019-06-11T16:35:21.351Z,5.80
2019-06-11T16:37:51.145Z,5.93
2019-06-11T16:40:22.056Z,6.10
2019-06-11T16:42:51.894Z,5.73
2019-06-11T16:45:21.836Z,5.80
2019-06-11T16:47:51.293Z,6.20
2019-06-11T16:50:23.101Z,5.80
2019-06-11T16:52:52.248Z,5.57
2019-06-11T16:55:22.152Z,6.40
2019-06-11T16:57:51.598Z,6.40
2019-06-11T17:00:28.967Z,6.33
2019-06-11T17:02:53.225Z,6.27
2019-06-11T17:05:26.315Z,5.60
2019-06-11T17:07:53.853Z,5.70
2019-06-11T17:10:23.648Z,5.50
2019-06-11T17:12:53.204Z,5.80
2019-06-11T17:15:23.531Z,5.83
2019-06-11T17:17:54.264Z,5.53
2019-06-11T17:20:24.246Z,6.10
2019-06-11T17:22:53.716Z,6.03
2019-06-11T17:25:26.791Z,6.30
2019-06-11T17:27:55.408Z,5.80
2019-06-11T17:30:25.076Z,5.80
2019-06-11T17:32:54.538Z,6.17
2019-06-11T17:35:23.974Z,5.17
2019-06-11T17:37:53.422Z,5.93
2019-06-11T17:40:26.724Z,5.97
2019-06-11T17:42:54.043Z,5.73
2019-06-11T17:45:29.927Z,6.00
2019-06-11T17:47:54.737Z,4.80
2019-06-11T17:50:30.419Z,6.30
2019-06-11T17:52:55.618Z,5.63
2019-06-11T17:55:25.062Z,6.57
2019-06-11T17:57:54.502Z,5.30
2019-06-11T18:00:36.884Z,5.17
2019-06-11T18:03:10.509Z,5.77
2019-06-11T18:05:42.136Z,6.20
2019-06-11T18:08:11.505Z,6.10
2019-06-11T18:10:41.490Z,6.00
2019-06-11T18:13:11.173Z,6.80
2019-06-11T18:15:41.044Z,5.83
2019-06-11T18:18:11.171Z,5.90
2019-06-11T18:20:41.294Z,6.53
2019-06-11T18:23:12.286Z,6.03
2019-06-11T18:25:41.969Z,5.97
2019-06-11T18:28:11.428Z,6.00
2019-06-11T18:30:41.584Z,6.47
2019-06-11T18:33:11.624Z,6.40
2019-06-11T18:35:41.033Z,5.83
2019-06-11T18:38:10.528Z,6.63
2019-06-11T18:40:40.973Z,6.03
2019-06-11T18:43:10.818Z,5.93
2019-06-11T18:45:40.975Z,6.40
2019-06-11T18:48:10.550Z,6.20
2019-06-11T18:50:40.540Z,7.13
2019-06-11T18:53:10.640Z,6.30
2019-06-11T18:55:41.209Z,6.93
2019-06-11T18:58:12.588Z,7.20
2019-06-11T19:00:42.035Z,6.40
2019-06-11T19:03:11.848Z,6.90
2019-06-11T19:05:41.402Z,7.33
2019-06-11T19:08:11.859Z,7.10
2019-06-11T19:10:41.526Z,8.07
2019-06-11T19:13:11.565Z,7.23
2019-06-11T19:15:41.311Z,6.80
2019-06-11T19:18:10.879Z,7.13
2019-06-11T19:20:40.554Z,7.20
2019-06-11T19:23:11.204Z,7.40
2019-06-11T19:25:43.326Z,7.27
2019-06-11T19:28:14.492Z,7.57
2019-06-11T19:30:44.095Z,8.00
2019-06-11T19:33:13.584Z,7.43
2019-06-11T19:35:43.043Z,6.50
2019-06-11T19:38:12.533Z,6.70
2019-06-11T19:40:42.292Z,7.37
2019-06-11T19:43:11.825Z,6.97
2019-06-11T19:45:43.204Z,7.80
2019-06-11T19:48:12.463Z,6.63
2019-06-11T19:50:41.963Z,7.10
2019-06-11T19:53:11.386Z,7.10
2019-06-11T19:55:41.266Z,8.80
2019-06-11T19:58:11.380Z,7.80
2019-06-11T20:00:41.760Z,6.87
2019-06-11T20:03:11.494Z,7.90
2019-06-11T20:05:40.947Z,8.27
2019-06-11T20:08:10.831Z,7.87
2019-06-11T20:10:45.193Z,7.20
2019-06-11T20:13:11.492Z,7.47
2019-06-11T20:15:41.063Z,6.87
2019-06-11T20:18:10.908Z,6.93
2019-06-11T20:20:40.913Z,7.30
2019-06-11T20:23:10.536Z,7.00
2019-06-11T20:25:42.184Z,7.40
2019-06-11T20:28:11.148Z,8.27
2019-06-11T20:30:40.900Z,5.80
2019-06-11T20:33:11.022Z,6.20
2019-06-11T20:35:41.648Z,6.77
2019-06-11T20:38:11.411Z,6.57
2019-06-11T20:40:42.310Z,7.17
2019-06-11T20:43:12.124Z,5.63
2019-06-11T20:45:44.320Z,7.00
2019-06-11T20:48:22.357Z,7.10
2019-06-11T20:50:43.908Z,6.47
2019-06-11T20:53:13.389Z,7.83
2019-06-11T20:55:43.344Z,6.53
2019-06-11T20:58:12.841Z,7.07
2019-06-11T21:00:44.560Z,7.47
2019-06-11T21:03:13.480Z,6.30
2019-06-11T21:05:43.816Z,6.90
2019-06-11T21:08:13.544Z,6.57
2019-06-11T21:10:43.789Z,8.63
2019-06-11T21:13:13.493Z,6.80
2019-06-11T21:15:47.702Z,7.53
2019-06-11T21:18:30.531Z,7.50
2019-06-11T21:21:01.923Z,7.60
2019-06-11T21:23:32.931Z,6.77
2019-06-11T21:26:02.493Z,7.07
2019-06-11T21:28:32.817Z,7.40
2019-06-11T21:31:02.550Z,7.80
2019-06-11T21:33:32.008Z,7.50
2019-06-11T21:36:01.459Z,8.67
2019-06-11T21:38:30.934Z,8.37
2019-06-11T21:41:02.822Z,9.20
2019-06-11T21:43:32.277Z,8.80
2019-06-11T21:46:01.732Z,9.63
2019-06-11T21:48:39.068Z,8.70
2019-06-11T21:51:02.362Z,8.40
2019-06-11T21:53:31.837Z,8.53
2019-06-11T21:56:01.457Z,7.63
2019-06-11T21:58:31.172Z,8.13
2019-06-11T22:01:02.848Z,9.10
2019-06-11T22:03:32.489Z,7.43
2019-06-11T22:06:01.962Z,7.83
2019-06-11T22:08:31.412Z,8.10
2019-06-11T22:11:00.858Z,7.90
2019-06-11T22:13:30.684Z,8.27
2019-06-11T22:16:00.739Z,7.80
2019-06-11T22:18:32.145Z,7.83
2019-06-11T22:21:01.626Z,7.33
2019-06-11T22:23:31.092Z,8.50
2019-06-11T22:26:00.722Z,9.00
2019-06-11T22:28:30.362Z,8.23
2019-06-11T22:31:01.504Z,7.20
2019-06-11T22:33:31.182Z,9.03
2019-06-11T22:36:20.333Z,8.27
2019-06-11T22:38:51.419Z,9.20
2019-06-11T22:41:21.131Z,8.53
2019-06-11T22:43:52.766Z,8.90
2019-06-11T22:46:21.782Z,8.93
2019-06-11T22:48:51.232Z,8.60
2019-06-11T22:51:20.719Z,8.83
2019-06-11T22:53:52.735Z,9.57
2019-06-11T22:56:21.486Z,9.17
2019-06-11T22:58:52.252Z,8.93
2019-06-11T23:01:21.875Z,9.30
2019-06-11T23:03:53.578Z,8.90
2019-06-11T23:06:22.523Z,8.50
2019-06-11T23:08:52.738Z,10.07
2019-06-11T23:11:22.282Z,10.47
2019-06-11T23:13:52.919Z,9.33
2019-06-11T23:16:22.644Z,9.10
2019-06-11T23:18:52.087Z,9.30
2019-06-11T23:21:21.582Z,10.60
2019-06-11T23:23:51.127Z,9.00
2019-06-11T23:26:20.830Z,9.07
2019-06-11T23:28:53.399Z,9.57
2019-06-11T23:31:21.605Z,9.50
2019-06-11T23:33:53.496Z,9.40
2019-06-11T23:36:22.258Z,10.30
2019-06-11T23:38:53.897Z,9.40
2019-06-11T23:41:22.868Z,9.20
2019-06-11T23:43:53.162Z,10.30
2019-06-11T23:46:22.727Z,9.60
2019-06-11T23:48:54.998Z,9.63
2019-06-11T23:51:23.377Z,10.13
2019-06-11T23:53:54.761Z,9.70
2019-06-11T23:56:24.011Z,10.23
2019-06-11T23:58:53.635Z,8.90
